sensor_id;sensor_type;location;lat;lon;timestamp;temperature;humidity
21906;DHT22;11117;48.644;9.006;2022-11-25T00:00:45;2.20;99.90
21906;DHT22;11117;48.644;9.006;2022-11-25T00:03:10;2.20;99.90
21906;DHT22;11117;48.644;9.006;2022-11-25T00:05:36;2.20;99.90
21906;DHT22;11117;48.644;9.006;2022-11-25T00:08:02;2.10;99.90
21906;DHT22;11117;48.644;9.006;2022-11-25T00:10:27;2.10;99.90
21906;DHT22;11117;48.644;9.006;2022-11-25T00:12:54;2.10;99.90
21906;DHT22;11117;48.644;9.006;2022-11-25T00:15:20;2.10;99.90
21906;DHT22;11117;48.644;9.006;2022-11-25T00:17:45;2.10;99.90
21906;DHT22;11117;48.644;9.006;2022-11-25T00:20:11;2.10;99.90
21906;DHT22;11117;48.644;9.006;2022-11-25T00:22:37;2.00;99.90
21906;DHT22;11117;48.644;9.006;2022-11-25T00:25:03;2.00;99.90
21906;DHT22;11117;48.644;9.006;2022-11-25T00:27:30;2.00;99.90
21906;DHT22;11117;48.644;9.006;2022-11-25T00:29:56;2.10;99.90
21906;DHT22;11117;48.644;9.006;2022-11-25T00:32:21;2.10;99.90
21906;DHT22;11117;48.644;9.006;2022-11-25T00:34:47;2.20;99.90
21906;DHT22;11117;48.644;9.006;2022-11-25T00:37:12;2.20;99.90
21906;DHT22;11117;48.644;9.006;2022-11-25T00:39:38;2.30;99.90
21906;DHT22;11117;48.644;9.006;2022-11-25T00:42:04;2.30;99.90
21906;DHT22;11117;48.644;9.006;2022-11-25T00:44:30;2.40;99.90
21906;DHT22;11117;48.644;9.006;2022-11-25T00:46:56;2.40;99.90
21906;DHT22;11117;48.644;9.006;2022-11-25T00:49:22;2.50;99.90
21906;DHT22;11117;48.644;9.006;2022-11-25T00:51:49;2.50;99.90
21906;DHT22;11117;48.644;9.006;2022-11-25T00:54:15;2.60;99.90
21906;DHT22;11117;48.644;9.006;2022-11-25T00:56:40;2.60;99.90
21906;DHT22;11117;48.644;9.006;2022-11-25T00:59:07;2.60;99.90
21906;DHT22;11117;48.644;9.006;2022-11-25T01:01:33;2.70;99.90
21906;DHT22;11117;48.644;9.006;2022-11-25T01:03:59;2.80;99.90
21906;DHT22;11117;48.644;9.006;2022-11-25T01:06:24;2.90;99.90
21906;DHT22;11117;48.644;9.006;2022-11-25T01:08:52;3.00;99.90
21906;DHT22;11117;48.644;9.006;2022-11-25T01:11:19;3.20;99.90
21906;DHT22;11117;48.644;9.006;2022-11-25T01:13:45;3.30;99.90
21906;DHT22;11117;48.644;9.006;2022-11-25T01:16:14;3.40;99.90
21906;DHT22;11117;48.644;9.006;2022-11-25T01:18:40;3.50;99.90
21906;DHT22;11117;48.644;9.006;2022-11-25T01:21:07;3.60;99.90
21906;DHT22;11117;48.644;9.006;2022-11-25T01:23:33;3.70;99.90
21906;DHT22;11117;48.644;9.006;2022-11-25T01:26:04;3.80;99.90
21906;DHT22;11117;48.644;9.006;2022-11-25T01:28:30;3.80;99.90
21906;DHT22;11117;48.644;9.006;2022-11-25T01:31:06;3.90;99.90
21906;DHT22;11117;48.644;9.006;2022-11-25T01:33:32;4.00;99.90
21906;DHT22;11117;48.644;9.006;2022-11-25T01:36:15;4.00;99.90
21906;DHT22;11117;48.644;9.006;2022-11-25T01:38:41;3.90;99.90
21906;DHT22;11117;48.644;9.006;2022-11-25T01:41:11;3.80;99.90
21906;DHT22;11117;48.644;9.006;2022-11-25T01:43:37;3.60;99.90
21906;DHT22;11117;48.644;9.006;2022-11-25T01:46:27;3.50;99.90
21906;DHT22;11117;48.644;9.006;2022-11-25T01:49:02;3.40;99.90
21906;DHT22;11117;48.644;9.006;2022-11-25T01:54:14;3.40;99.90
21906;DHT22;11117;48.644;9.006;2022-11-25T01:57:02;3.40;99.90
21906;DHT22;11117;48.644;9.006;2022-11-25T01:59:31;3.40;99.90
21906;DHT22;11117;48.644;9.006;2022-11-25T02:01:57;3.30;99.90
21906;DHT22;11117;48.644;9.006;2022-11-25T02:04:28;3.30;99.90
21906;DHT22;11117;48.644;9.006;2022-11-25T02:07:00;3.30;99.90
21906;DHT22;11117;48.644;9.006;2022-11-25T02:09:29;3.20;99.90
21906;DHT22;11117;48.644;9.006;2022-11-25T02:11:55;3.30;99.90
21906;DHT22;11117;48.644;9.006;2022-11-25T02:14:22;3.30;99.90
21906;DHT22;11117;48.644;9.006;2022-11-25T02:16:49;3.20;99.90
21906;DHT22;11117;48.644;9.006;2022-11-25T02:19:22;3.20;99.90
21906;DHT22;11117;48.644;9.006;2022-11-25T02:21:53;3.20;99.90
21906;DHT22;11117;48.644;9.006;2022-11-25T02:24:34;3.20;99.90
21906;DHT22;11117;48.644;9.006;2022-11-25T02:27:04;3.20;99.90
21906;DHT22;11117;48.644;9.006;2022-11-25T02:29:31;3.10;99.90
21906;DHT22;11117;48.644;9.006;2022-11-25T02:31:57;3.10;99.90
21906;DHT22;11117;48.644;9.006;2022-11-25T02:34:22;3.10;99.90
21906;DHT22;11117;48.644;9.006;2022-11-25T02:36:48;3.10;99.90
21906;DHT22;11117;48.644;9.006;2022-11-25T02:39:14;3.10;99.90
21906;DHT22;11117;48.644;9.006;2022-11-25T02:41:43;3.10;99.90
21906;DHT22;11117;48.644;9.006;2022-11-25T02:44:10;3.20;99.90
21906;DHT22;11117;48.644;9.006;2022-11-25T02:46:36;3.10;99.90
21906;DHT22;11117;48.644;9.006;2022-11-25T02:49:02;3.00;99.90
21906;DHT22;11117;48.644;9.006;2022-11-25T02:51:31;3.00;99.90
21906;DHT22;11117;48.644;9.006;2022-11-25T02:53:56;3.00;99.90
21906;DHT22;11117;48.644;9.006;2022-11-25T02:56:25;2.90;99.90
21906;DHT22;11117;48.644;9.006;2022-11-25T02:58:51;2.90;99.90
21906;DHT22;11117;48.644;9.006;2022-11-25T03:01:17;2.80;99.90
21906;DHT22;11117;48.644;9.006;2022-11-25T03:03:43;2.80;99.90
21906;DHT22;11117;48.644;9.006;2022-11-25T03:06:09;2.80;99.90
21906;DHT22;11117;48.644;9.006;2022-11-25T03:08:35;2.80;99.90
21906;DHT22;11117;48.644;9.006;2022-11-25T03:11:01;2.70;99.90
21906;DHT22;11117;48.644;9.006;2022-11-25T03:13:27;2.70;99.90
21906;DHT22;11117;48.644;9.006;2022-11-25T03:15:52;2.60;99.90
21906;DHT22;11117;48.644;9.006;2022-11-25T03:18:18;2.60;99.90
21906;DHT22;11117;48.644;9.006;2022-11-25T03:20:43;2.70;99.90
21906;DHT22;11117;48.644;9.006;2022-11-25T03:23:09;2.70;99.90
21906;DHT22;11117;48.644;9.006;2022-11-25T03:25:35;2.70;99.90
21906;DHT22;11117;48.644;9.006;2022-11-25T03:28:01;2.70;99.90
21906;DHT22;11117;48.644;9.006;2022-11-25T03:30:27;2.80;99.90
21906;DHT22;11117;48.644;9.006;2022-11-25T03:32:53;2.90;99.90
21906;DHT22;11117;48.644;9.006;2022-11-25T03:35:19;2.80;99.90
21906;DHT22;11117;48.644;9.006;2022-11-25T03:37:45;2.90;99.90
21906;DHT22;11117;48.644;9.006;2022-11-25T03:40:12;2.90;99.90
21906;DHT22;11117;48.644;9.006;2022-11-25T03:42:38;3.00;99.90
21906;DHT22;11117;48.644;9.006;2022-11-25T03:45:04;3.00;99.90
21906;DHT22;11117;48.644;9.006;2022-11-25T03:47:30;3.00;99.90
21906;DHT22;11117;48.644;9.006;2022-11-25T03:49:56;3.00;99.90
21906;DHT22;11117;48.644;9.006;2022-11-25T03:52:23;3.10;99.90
21906;DHT22;11117;48.644;9.006;2022-11-25T03:54:48;3.10;99.90
21906;DHT22;11117;48.644;9.006;2022-11-25T03:57:14;3.00;99.90
21906;DHT22;11117;48.644;9.006;2022-11-25T03:59:40;3.10;99.90
21906;DHT22;11117;48.644;9.006;2022-11-25T04:02:05;3.10;99.90
21906;DHT22;11117;48.644;9.006;2022-11-25T04:04:33;3.10;99.90
21906;DHT22;11117;48.644;9.006;2022-11-25T04:06:59;3.10;99.90
21906;DHT22;11117;48.644;9.006;2022-11-25T04:09:26;3.10;99.90
21906;DHT22;11117;48.644;9.006;2022-11-25T04:11:51;3.10;99.90
21906;DHT22;11117;48.644;9.006;2022-11-25T04:14:17;3.10;99.90
21906;DHT22;11117;48.644;9.006;2022-11-25T04:16:43;3.10;99.90
21906;DHT22;11117;48.644;9.006;2022-11-25T04:19:08;3.20;99.90
21906;DHT22;11117;48.644;9.006;2022-11-25T04:21:34;3.30;99.90
21906;DHT22;11117;48.644;9.006;2022-11-25T04:24:00;3.30;99.90
21906;DHT22;11117;48.644;9.006;2022-11-25T04:26:25;3.50;99.90
21906;DHT22;11117;48.644;9.006;2022-11-25T04:28:51;3.50;99.90
21906;DHT22;11117;48.644;9.006;2022-11-25T04:31:16;3.60;99.90
21906;DHT22;11117;48.644;9.006;2022-11-25T04:33:42;3.60;99.90
21906;DHT22;11117;48.644;9.006;2022-11-25T04:36:08;3.70;99.90
21906;DHT22;11117;48.644;9.006;2022-11-25T04:38:34;3.80;99.90
21906;DHT22;11117;48.644;9.006;2022-11-25T04:40:59;3.80;99.90
21906;DHT22;11117;48.644;9.006;2022-11-25T04:43:25;3.80;99.90
21906;DHT22;11117;48.644;9.006;2022-11-25T04:45:51;3.90;99.90
21906;DHT22;11117;48.644;9.006;2022-11-25T04:48:17;3.80;99.90
21906;DHT22;11117;48.644;9.006;2022-11-25T04:50:43;3.80;99.90
21906;DHT22;11117;48.644;9.006;2022-11-25T04:53:09;3.70;99.90
21906;DHT22;11117;48.644;9.006;2022-11-25T04:55:34;3.70;99.90
21906;DHT22;11117;48.644;9.006;2022-11-25T04:58:00;3.70;99.90
21906;DHT22;11117;48.644;9.006;2022-11-25T05:00:26;3.60;99.90
21906;DHT22;11117;48.644;9.006;2022-11-25T05:02:51;3.70;99.90
21906;DHT22;11117;48.644;9.006;2022-11-25T05:05:17;3.70;99.90
21906;DHT22;11117;48.644;9.006;2022-11-25T05:07:42;3.70;99.90
21906;DHT22;11117;48.644;9.006;2022-11-25T05:10:08;3.60;99.90
21906;DHT22;11117;48.644;9.006;2022-11-25T05:12:34;3.60;99.90
21906;DHT22;11117;48.644;9.006;2022-11-25T05:15:00;3.60;99.90
21906;DHT22;11117;48.644;9.006;2022-11-25T05:17:29;3.60;99.90
21906;DHT22;11117;48.644;9.006;2022-11-25T05:19:55;3.60;99.90
21906;DHT22;11117;48.644;9.006;2022-11-25T05:22:23;3.60;99.90
21906;DHT22;11117;48.644;9.006;2022-11-25T05:24:49;3.60;99.90
21906;DHT22;11117;48.644;9.006;2022-11-25T05:27:16;3.60;99.90
21906;DHT22;11117;48.644;9.006;2022-11-25T05:29:41;3.50;99.90
21906;DHT22;11117;48.644;9.006;2022-11-25T05:32:07;3.50;99.90
21906;DHT22;11117;48.644;9.006;2022-11-25T05:34:33;3.50;99.90
21906;DHT22;11117;48.644;9.006;2022-11-25T05:36:59;3.50;99.90
21906;DHT22;11117;48.644;9.006;2022-11-25T05:39:25;3.50;99.90
21906;DHT22;11117;48.644;9.006;2022-11-25T05:41:50;3.30;99.90
21906;DHT22;11117;48.644;9.006;2022-11-25T05:44:16;3.20;99.90
21906;DHT22;11117;48.644;9.006;2022-11-25T05:46:44;3.10;99.90
21906;DHT22;11117;48.644;9.006;2022-11-25T05:49:09;3.00;99.90
21906;DHT22;11117;48.644;9.006;2022-11-25T05:51:35;2.90;99.90
21906;DHT22;11117;48.644;9.006;2022-11-25T05:54:00;2.70;99.90
21906;DHT22;11117;48.644;9.006;2022-11-25T05:56:26;2.70;99.90
21906;DHT22;11117;48.644;9.006;2022-11-25T05:58:51;2.60;99.90
21906;DHT22;11117;48.644;9.006;2022-11-25T06:01:20;2.50;99.90
21906;DHT22;11117;48.644;9.006;2022-11-25T06:03:46;2.50;99.90
21906;DHT22;11117;48.644;9.006;2022-11-25T06:06:12;2.40;99.90
21906;DHT22;11117;48.644;9.006;2022-11-25T06:08:38;2.40;99.90
21906;DHT22;11117;48.644;9.006;2022-11-25T06:11:08;2.40;99.90
21906;DHT22;11117;48.644;9.006;2022-11-25T06:13:34;2.30;99.90
21906;DHT22;11117;48.644;9.006;2022-11-25T06:16:06;2.40;99.90
21906;DHT22;11117;48.644;9.006;2022-11-25T06:18:31;2.40;99.90
21906;DHT22;11117;48.644;9.006;2022-11-25T06:20:58;2.50;99.90
21906;DHT22;11117;48.644;9.006;2022-11-25T06:23:24;2.50;99.90
21906;DHT22;11117;48.644;9.006;2022-11-25T06:25:51;2.50;99.90
21906;DHT22;11117;48.644;9.006;2022-11-25T06:28:19;2.60;99.90
21906;DHT22;11117;48.644;9.006;2022-11-25T06:30:45;2.60;99.90
21906;DHT22;11117;48.644;9.006;2022-11-25T06:33:10;2.60;99.90
21906;DHT22;11117;48.644;9.006;2022-11-25T06:35:36;2.60;99.90
21906;DHT22;11117;48.644;9.006;2022-11-25T06:38:02;2.60;99.90
21906;DHT22;11117;48.644;9.006;2022-11-25T06:40:28;2.60;99.90
21906;DHT22;11117;48.644;9.006;2022-11-25T06:42:53;2.60;99.90
21906;DHT22;11117;48.644;9.006;2022-11-25T06:45:19;2.70;99.90
21906;DHT22;11117;48.644;9.006;2022-11-25T06:47:44;2.80;99.90
21906;DHT22;11117;48.644;9.006;2022-11-25T06:50:10;2.80;99.90
21906;DHT22;11117;48.644;9.006;2022-11-25T06:52:36;2.80;99.90
21906;DHT22;11117;48.644;9.006;2022-11-25T06:55:02;3.00;99.90
21906;DHT22;11117;48.644;9.006;2022-11-25T06:57:28;3.00;99.90
21906;DHT22;11117;48.644;9.006;2022-11-25T06:59:53;3.10;99.90
21906;DHT22;11117;48.644;9.006;2022-11-25T07:02:19;3.20;99.90
21906;DHT22;11117;48.644;9.006;2022-11-25T07:04:44;3.30;99.90
21906;DHT22;11117;48.644;9.006;2022-11-25T07:07:10;3.40;99.90
21906;DHT22;11117;48.644;9.006;2022-11-25T07:09:36;3.40;99.90
21906;DHT22;11117;48.644;9.006;2022-11-25T07:12:02;3.50;99.90
21906;DHT22;11117;48.644;9.006;2022-11-25T07:14:27;3.60;99.90
21906;DHT22;11117;48.644;9.006;2022-11-25T07:16:53;3.60;99.90
21906;DHT22;11117;48.644;9.006;2022-11-25T07:19:19;3.70;99.90
21906;DHT22;11117;48.644;9.006;2022-11-25T07:21:45;3.80;99.90
21906;DHT22;11117;48.644;9.006;2022-11-25T07:24:16;3.90;99.90
21906;DHT22;11117;48.644;9.006;2022-11-25T07:26:42;4.00;99.90
21906;DHT22;11117;48.644;9.006;2022-11-25T07:29:13;4.10;99.90
21906;DHT22;11117;48.644;9.006;2022-11-25T07:31:41;4.30;99.90
21906;DHT22;11117;48.644;9.006;2022-11-25T07:34:12;4.40;99.90
21906;DHT22;11117;48.644;9.006;2022-11-25T07:36:39;4.50;99.90
21906;DHT22;11117;48.644;9.006;2022-11-25T07:39:07;4.70;99.90
21906;DHT22;11117;48.644;9.006;2022-11-25T07:41:33;4.80;99.90
21906;DHT22;11117;48.644;9.006;2022-11-25T07:44:04;4.90;99.90
21906;DHT22;11117;48.644;9.006;2022-11-25T07:46:35;5.10;99.90
21906;DHT22;11117;48.644;9.006;2022-11-25T07:49:03;5.10;99.90
21906;DHT22;11117;48.644;9.006;2022-11-25T07:51:35;5.20;99.90
21906;DHT22;11117;48.644;9.006;2022-11-25T07:54:03;5.20;99.90
21906;DHT22;11117;48.644;9.006;2022-11-25T07:56:29;5.10;99.90
21906;DHT22;11117;48.644;9.006;2022-11-25T07:58:56;5.10;99.90
21906;DHT22;11117;48.644;9.006;2022-11-25T08:01:22;5.00;99.90
21906;DHT22;11117;48.644;9.006;2022-11-25T08:03:48;4.90;99.90
21906;DHT22;11117;48.644;9.006;2022-11-25T08:06:17;4.90;99.90
21906;DHT22;11117;48.644;9.006;2022-11-25T08:08:43;4.90;99.90
21906;DHT22;11117;48.644;9.006;2022-11-25T08:11:12;5.10;99.90
21906;DHT22;11117;48.644;9.006;2022-11-25T08:13:38;5.30;99.90
21906;DHT22;11117;48.644;9.006;2022-11-25T08:16:04;5.30;99.90
21906;DHT22;11117;48.644;9.006;2022-11-25T08:18:33;5.30;99.90
21906;DHT22;11117;48.644;9.006;2022-11-25T08:21:00;5.50;99.90
21906;DHT22;11117;48.644;9.006;2022-11-25T08:23:26;5.50;99.90
21906;DHT22;11117;48.644;9.006;2022-11-25T08:25:52;5.50;99.90
21906;DHT22;11117;48.644;9.006;2022-11-25T08:28:18;5.70;99.90
21906;DHT22;11117;48.644;9.006;2022-11-25T08:30:44;5.60;99.90
21906;DHT22;11117;48.644;9.006;2022-11-25T08:33:09;5.70;99.90
21906;DHT22;11117;48.644;9.006;2022-11-25T08:35:35;5.70;99.90
21906;DHT22;11117;48.644;9.006;2022-11-25T08:38:00;5.80;99.90
21906;DHT22;11117;48.644;9.006;2022-11-25T08:40:26;6.10;99.90
21906;DHT22;11117;48.644;9.006;2022-11-25T08:42:54;6.00;99.90
21906;DHT22;11117;48.644;9.006;2022-11-25T08:45:20;6.10;99.90
21906;DHT22;11117;48.644;9.006;2022-11-25T08:47:46;6.40;99.90
21906;DHT22;11117;48.644;9.006;2022-11-25T08:50:13;6.50;99.90
21906;DHT22;11117;48.644;9.006;2022-11-25T08:52:39;6.70;99.90
21906;DHT22;11117;48.644;9.006;2022-11-25T08:55:06;6.90;99.90
21906;DHT22;11117;48.644;9.006;2022-11-25T08:57:32;7.00;99.90
21906;DHT22;11117;48.644;9.006;2022-11-25T08:59:57;7.00;99.90
21906;DHT22;11117;48.644;9.006;2022-11-25T09:02:23;7.00;99.90
21906;DHT22;11117;48.644;9.006;2022-11-25T09:04:48;7.30;99.90
21906;DHT22;11117;48.644;9.006;2022-11-25T09:07:14;7.50;99.90
21906;DHT22;11117;48.644;9.006;2022-11-25T09:09:39;7.60;99.90
21906;DHT22;11117;48.644;9.006;2022-11-25T09:12:05;7.70;99.90
21906;DHT22;11117;48.644;9.006;2022-11-25T09:14:31;7.70;99.90
21906;DHT22;11117;48.644;9.006;2022-11-25T09:16:56;7.70;99.90
21906;DHT22;11117;48.644;9.006;2022-11-25T09:19:22;7.60;99.90
21906;DHT22;11117;48.644;9.006;2022-11-25T09:21:50;7.60;99.90
21906;DHT22;11117;48.644;9.006;2022-11-25T09:24:16;7.70;99.90
21906;DHT22;11117;48.644;9.006;2022-11-25T09:26:42;7.90;99.90
21906;DHT22;11117;48.644;9.006;2022-11-25T09:29:08;8.10;99.90
21906;DHT22;11117;48.644;9.006;2022-11-25T09:31:34;8.10;99.90
21906;DHT22;11117;48.644;9.006;2022-11-25T09:34:00;8.30;99.90
21906;DHT22;11117;48.644;9.006;2022-11-25T09:36:28;8.40;99.90
21906;DHT22;11117;48.644;9.006;2022-11-25T09:38:56;8.50;99.90
21906;DHT22;11117;48.644;9.006;2022-11-25T09:44:03;8.80;99.90
21906;DHT22;11117;48.644;9.006;2022-11-25T09:46:46;8.80;99.90
21906;DHT22;11117;48.644;9.006;2022-11-25T09:52:25;9.00;99.90
21906;DHT22;11117;48.644;9.006;2022-11-25T09:55:11;9.10;99.90
21906;DHT22;11117;48.644;9.006;2022-11-25T09:58:17;9.10;99.90
21906;DHT22;11117;48.644;9.006;2022-11-25T10:00:46;9.30;99.90
21906;DHT22;11117;48.644;9.006;2022-11-25T10:08:42;9.60;99.90
21906;DHT22;11117;48.644;9.006;2022-11-25T10:11:29;9.80;99.90
21906;DHT22;11117;48.644;9.006;2022-11-25T10:14:15;10.10;99.90
21906;DHT22;11117;48.644;9.006;2022-11-25T10:16:50;10.30;99.90
21906;DHT22;11117;48.644;9.006;2022-11-25T10:19:23;10.30;99.90
21906;DHT22;11117;48.644;9.006;2022-11-25T10:21:53;10.40;99.90
21906;DHT22;11117;48.644;9.006;2022-11-25T10:24:19;10.40;99.90
21906;DHT22;11117;48.644;9.006;2022-11-25T10:26:50;10.30;99.90
21906;DHT22;11117;48.644;9.006;2022-11-25T10:31:43;10.20;99.90
21906;DHT22;11117;48.644;9.006;2022-11-25T10:36:57;10.00;99.90
21906;DHT22;11117;48.644;9.006;2022-11-25T10:39:25;9.80;99.90
21906;DHT22;11117;48.644;9.006;2022-11-25T10:44:29;10.20;99.90
21906;DHT22;11117;48.644;9.006;2022-11-25T10:52:43;10.40;99.90
21906;DHT22;11117;48.644;9.006;2022-11-25T10:55:15;10.70;99.90
21906;DHT22;11117;48.644;9.006;2022-11-25T10:57:41;10.50;99.90
21906;DHT22;11117;48.644;9.006;2022-11-25T11:00:36;10.60;99.90
21906;DHT22;11117;48.644;9.006;2022-11-25T11:03:20;10.70;99.90
21906;DHT22;11117;48.644;9.006;2022-11-25T11:05:49;10.60;99.90
21906;DHT22;11117;48.644;9.006;2022-11-25T11:10:41;10.80;99.90
21906;DHT22;11117;48.644;9.006;2022-11-25T11:13:22;10.70;99.90
21906;DHT22;11117;48.644;9.006;2022-11-25T11:15:49;10.70;99.90
21906;DHT22;11117;48.644;9.006;2022-11-25T11:20:57;10.70;99.90
21906;DHT22;11117;48.644;9.006;2022-11-25T11:23:25;10.60;99.90
21906;DHT22;11117;48.644;9.006;2022-11-25T11:31:22;10.10;99.90
21906;DHT22;11117;48.644;9.006;2022-11-25T11:42:08;9.60;99.90
21906;DHT22;11117;48.644;9.006;2022-11-25T11:50:24;9.40;99.90
21906;DHT22;11117;48.644;9.006;2022-11-25T12:10:25;10.30;99.90
21906;DHT22;11117;48.644;9.006;2022-11-25T12:13:19;10.50;99.90
21906;DHT22;11117;48.644;9.006;2022-11-25T12:18:44;11.00;99.90
21906;DHT22;11117;48.644;9.006;2022-11-25T12:27:00;11.20;99.90
21906;DHT22;11117;48.644;9.006;2022-11-25T12:29:38;10.80;99.90
21906;DHT22;11117;48.644;9.006;2022-11-25T12:37:43;10.50;99.90
21906;DHT22;11117;48.644;9.006;2022-11-25T12:42:57;10.40;99.90
21906;DHT22;11117;48.644;9.006;2022-11-25T12:45:25;10.30;99.90
21906;DHT22;11117;48.644;9.006;2022-11-25T12:47:51;10.40;99.90
21906;DHT22;11117;48.644;9.006;2022-11-25T12:50:37;10.40;99.90
21906;DHT22;11117;48.644;9.006;2022-11-25T12:53:15;10.60;99.90
21906;DHT22;11117;48.644;9.006;2022-11-25T12:55:53;10.70;99.90
21906;DHT22;11117;48.644;9.006;2022-11-25T13:01:35;10.30;99.90
21906;DHT22;11117;48.644;9.006;2022-11-25T13:07:15;9.90;99.90
21906;DHT22;11117;48.644;9.006;2022-11-25T13:10:16;9.80;99.90
21906;DHT22;11117;48.644;9.006;2022-11-25T13:17:45;9.50;99.90
21906;DHT22;11117;48.644;9.006;2022-11-25T13:20:44;9.30;99.90
21906;DHT22;11117;48.644;9.006;2022-11-25T13:25:38;8.90;99.90
21906;DHT22;11117;48.644;9.006;2022-11-25T13:28:09;8.80;99.90
21906;DHT22;11117;48.644;9.006;2022-11-25T13:30:52;8.80;99.90
21906;DHT22;11117;48.644;9.006;2022-11-25T13:38:36;8.90;99.90
21906;DHT22;11117;48.644;9.006;2022-11-25T13:41:20;9.00;99.90
21906;DHT22;11117;48.644;9.006;2022-11-25T13:46:51;9.20;99.90
21906;DHT22;11117;48.644;9.006;2022-11-25T13:49:49;9.20;99.90
21906;DHT22;11117;48.644;9.006;2022-11-25T13:52:36;9.20;99.90
21906;DHT22;11117;48.644;9.006;2022-11-25T13:57:47;9.00;99.90
21906;DHT22;11117;48.644;9.006;2022-11-25T14:02:49;9.10;99.90
21906;DHT22;11117;48.644;9.006;2022-11-25T14:05:36;9.20;99.90
21906;DHT22;11117;48.644;9.006;2022-11-25T14:24:58;8.30;99.90
21906;DHT22;11117;48.644;9.006;2022-11-25T14:27:28;8.30;99.90
21906;DHT22;11117;48.644;9.006;2022-11-25T14:29:59;8.20;99.90
21906;DHT22;11117;48.644;9.006;2022-11-25T14:32:32;8.20;99.90
21906;DHT22;11117;48.644;9.006;2022-11-25T14:35:08;8.20;99.90
21906;DHT22;11117;48.644;9.006;2022-11-25T14:37:44;8.10;99.90
21906;DHT22;11117;48.644;9.006;2022-11-25T14:40:23;8.00;99.90
21906;DHT22;11117;48.644;9.006;2022-11-25T14:42:56;8.00;99.90
21906;DHT22;11117;48.644;9.006;2022-11-25T14:45:26;8.00;99.90
21906;DHT22;11117;48.644;9.006;2022-11-25T14:47:52;8.00;99.90
21906;DHT22;11117;48.644;9.006;2022-11-25T14:50:18;8.00;99.90
21906;DHT22;11117;48.644;9.006;2022-11-25T14:52:44;8.00;99.90
21906;DHT22;11117;48.644;9.006;2022-11-25T14:55:10;8.00;99.90
21906;DHT22;11117;48.644;9.006;2022-11-25T14:57:37;7.90;99.90
21906;DHT22;11117;48.644;9.006;2022-11-25T15:02:33;7.80;99.90
21906;DHT22;11117;48.644;9.006;2022-11-25T15:07:41;7.80;99.90
21906;DHT22;11117;48.644;9.006;2022-11-25T15:10:28;7.70;99.90
21906;DHT22;11117;48.644;9.006;2022-11-25T15:12:53;7.70;99.90
21906;DHT22;11117;48.644;9.006;2022-11-25T15:15:19;7.70;99.90
21906;DHT22;11117;48.644;9.006;2022-11-25T15:17:45;7.70;99.90
21906;DHT22;11117;48.644;9.006;2022-11-25T15:20:13;7.70;99.90
21906;DHT22;11117;48.644;9.006;2022-11-25T15:22:48;7.60;99.90
21906;DHT22;11117;48.644;9.006;2022-11-25T15:25:14;7.60;99.90
21906;DHT22;11117;48.644;9.006;2022-11-25T15:27:46;7.60;99.90
21906;DHT22;11117;48.644;9.006;2022-11-25T15:30:19;7.60;99.90
21906;DHT22;11117;48.644;9.006;2022-11-25T15:32:45;7.50;99.90
21906;DHT22;11117;48.644;9.006;2022-11-25T15:35:17;7.50;99.90
21906;DHT22;11117;48.644;9.006;2022-11-25T15:37:43;7.40;99.90
21906;DHT22;11117;48.644;9.006;2022-11-25T15:40:28;7.30;99.90
21906;DHT22;11117;48.644;9.006;2022-11-25T15:42:54;7.30;99.90
21906;DHT22;11117;48.644;9.006;2022-11-25T15:45:20;7.30;99.90
21906;DHT22;11117;48.644;9.006;2022-11-25T15:47:46;7.30;99.90
21906;DHT22;11117;48.644;9.006;2022-11-25T15:50:20;7.20;99.90
21906;DHT22;11117;48.644;9.006;2022-11-25T15:52:51;7.20;99.90
21906;DHT22;11117;48.644;9.006;2022-11-25T15:55:23;7.20;99.90
21906;DHT22;11117;48.644;9.006;2022-11-25T15:57:51;7.20;99.90
21906;DHT22;11117;48.644;9.006;2022-11-25T16:00:20;7.20;99.90
21906;DHT22;11117;48.644;9.006;2022-11-25T16:10:22;7.10;99.90
21906;DHT22;11117;48.644;9.006;2022-11-25T16:21:29;7.00;99.90
21906;DHT22;11117;48.644;9.006;2022-11-25T16:26:50;6.90;99.90
21906;DHT22;11117;48.644;9.006;2022-11-25T16:29:25;6.90;99.90
21906;DHT22;11117;48.644;9.006;2022-11-25T16:31:51;7.00;99.90
21906;DHT22;11117;48.644;9.006;2022-11-25T16:34:19;7.00;99.90
21906;DHT22;11117;48.644;9.006;2022-11-25T16:36:45;7.00;99.90
21906;DHT22;11117;48.644;9.006;2022-11-25T16:39:11;7.00;99.90
21906;DHT22;11117;48.644;9.006;2022-11-25T16:41:37;7.10;99.90
21906;DHT22;11117;48.644;9.006;2022-11-25T16:44:14;7.10;99.90
21906;DHT22;11117;48.644;9.006;2022-11-25T16:46:41;7.10;99.90
21906;DHT22;11117;48.644;9.006;2022-11-25T16:49:14;7.10;99.90
21906;DHT22;11117;48.644;9.006;2022-11-25T16:51:39;7.20;99.90
21906;DHT22;11117;48.644;9.006;2022-11-25T16:54:05;7.20;99.90
21906;DHT22;11117;48.644;9.006;2022-11-25T16:56:33;7.20;99.90
21906;DHT22;11117;48.644;9.006;2022-11-25T16:58:59;7.10;99.90
21906;DHT22;11117;48.644;9.006;2022-11-25T17:01:26;7.10;99.90
21906;DHT22;11117;48.644;9.006;2022-11-25T17:03:53;7.20;99.90
21906;DHT22;11117;48.644;9.006;2022-11-25T17:06:21;7.20;99.90
21906;DHT22;11117;48.644;9.006;2022-11-25T17:08:47;7.20;99.90
21906;DHT22;11117;48.644;9.006;2022-11-25T17:11:28;7.10;99.90
21906;DHT22;11117;48.644;9.006;2022-11-25T17:13:57;7.10;99.90
21906;DHT22;11117;48.644;9.006;2022-11-25T17:16:25;7.00;99.90
21906;DHT22;11117;48.644;9.006;2022-11-25T17:18:54;6.90;99.90
21906;DHT22;11117;48.644;9.006;2022-11-25T17:21:21;6.80;99.90
21906;DHT22;11117;48.644;9.006;2022-11-25T17:23:47;6.70;99.90
21906;DHT22;11117;48.644;9.006;2022-11-25T17:26:23;6.60;99.90
21906;DHT22;11117;48.644;9.006;2022-11-25T17:28:53;6.60;99.90
21906;DHT22;11117;48.644;9.006;2022-11-25T17:31:21;6.60;99.90
21906;DHT22;11117;48.644;9.006;2022-11-25T17:33:49;6.60;99.90
21906;DHT22;11117;48.644;9.006;2022-11-25T17:36:14;6.60;99.90
21906;DHT22;11117;48.644;9.006;2022-11-25T17:38:40;6.70;99.90
21906;DHT22;11117;48.644;9.006;2022-11-25T17:41:11;6.70;99.90
21906;DHT22;11117;48.644;9.006;2022-11-25T17:43:37;6.80;99.90
21906;DHT22;11117;48.644;9.006;2022-11-25T17:46:03;6.70;99.90
21906;DHT22;11117;48.644;9.006;2022-11-25T17:48:29;6.80;99.90
21906;DHT22;11117;48.644;9.006;2022-11-25T17:50:54;6.90;99.90
21906;DHT22;11117;48.644;9.006;2022-11-25T17:53:20;7.00;99.90
21906;DHT22;11117;48.644;9.006;2022-11-25T17:55:45;7.00;99.90
21906;DHT22;11117;48.644;9.006;2022-11-25T17:58:11;6.90;99.90
21906;DHT22;11117;48.644;9.006;2022-11-25T18:00:40;6.90;99.90
21906;DHT22;11117;48.644;9.006;2022-11-25T18:03:14;6.90;99.90
21906;DHT22;11117;48.644;9.006;2022-11-25T18:05:40;6.90;99.90
21906;DHT22;11117;48.644;9.006;2022-11-25T18:08:06;6.90;99.90
21906;DHT22;11117;48.644;9.006;2022-11-25T18:10:31;6.90;99.90
21906;DHT22;11117;48.644;9.006;2022-11-25T18:12:57;7.00;99.90
21906;DHT22;11117;48.644;9.006;2022-11-25T18:15:26;7.10;99.90
21906;DHT22;11117;48.644;9.006;2022-11-25T18:18:08;7.20;99.90
21906;DHT22;11117;48.644;9.006;2022-11-25T18:20:37;7.20;99.90
21906;DHT22;11117;48.644;9.006;2022-11-25T18:23:02;7.30;99.90
21906;DHT22;11117;48.644;9.006;2022-11-25T18:25:30;7.30;99.90
21906;DHT22;11117;48.644;9.006;2022-11-25T18:27:56;7.30;99.90